createdAt,value
2019-02-02T00:02:48.439Z,32.33
2019-02-02T00:07:52.152Z,35.93
2019-02-02T00:12:56.239Z,34.27
2019-02-02T00:17:59.965Z,38.07
2019-02-02T00:23:03.844Z,48.57
2019-02-02T00:28:07.647Z,60.60
2019-02-02T00:33:11.757Z,60.70
2019-02-02T00:38:15.537Z,82.80
2019-02-02T00:43:19.282Z,79.20
2019-02-02T00:48:22.995Z,86.70
2019-02-02T00:53:26.806Z,83.07
2019-02-02T00:58:30.542Z,83.83
2019-02-02T01:03:34.269Z,74.97
2019-02-02T01:08:38.055Z,79.47
2019-02-02T01:13:41.734Z,72.13
2019-02-02T01:18:45.414Z,67.43
2019-02-02T01:23:49.339Z,61.93
2019-02-02T01:28:53.065Z,57.17
2019-02-02T01:33:56.938Z,59.77
2019-02-02T01:39:00.698Z,56.13
2019-02-02T01:44:04.587Z,55.67
2019-02-02T01:49:08.362Z,51.77
2019-02-02T01:54:12.177Z,53.50
2019-02-02T01:59:15.891Z,52.53
2019-02-02T02:04:19.769Z,51.80
2019-02-02T02:09:23.418Z,46.07
2019-02-02T02:14:27.074Z,42.23
2019-02-02T02:19:30.756Z,38.40
2019-02-02T02:24:34.447Z,40.87
2019-02-02T02:29:38.163Z,39.90
2019-02-02T02:34:41.986Z,40.73
2019-02-02T02:39:45.764Z,38.83
2019-02-02T02:44:49.415Z,36.60
2019-02-02T02:49:53.093Z,39.17
2019-02-02T02:54:56.791Z,35.20
2019-02-02T03:00:00.471Z,34.40
2019-02-02T03:05:04.734Z,35.23
2019-02-02T03:10:10.584Z,33.17
2019-02-02T03:15:15.053Z,33.73
2019-02-02T03:20:18.834Z,30.73
2019-02-02T03:25:23.799Z,34.70
2019-02-02T03:30:27.893Z,29.90
2019-02-02T03:35:31.647Z,33.70
2019-02-02T03:40:35.269Z,36.20
2019-02-02T03:45:40.979Z,31.67
2019-02-02T03:50:44.420Z,30.80
2019-02-02T03:55:48.142Z,33.37
2019-02-02T04:00:51.846Z,30.90
2019-02-02T04:05:55.644Z,33.73
2019-02-02T04:10:59.340Z,33.30
2019-02-02T04:16:03.030Z,31.50
2019-02-02T04:21:07.038Z,28.83
2019-02-02T04:26:10.771Z,33.07
2019-02-02T04:31:14.478Z,33.50
2019-02-02T04:36:18.151Z,34.20
2019-02-02T04:41:21.828Z,32.50
2019-02-02T04:46:25.604Z,34.50
2019-02-02T04:51:29.622Z,34.93
2019-02-02T04:56:33.558Z,35.47
2019-02-02T05:01:37.366Z,34.07
2019-02-02T05:06:41.134Z,32.67
2019-02-02T05:11:44.859Z,38.37
2019-02-02T05:16:48.666Z,33.90
2019-02-02T05:21:52.353Z,37.80
2019-02-02T05:26:56.117Z,34.60
2019-02-02T05:31:59.928Z,33.50
2019-02-02T05:37:03.600Z,38.60
2019-02-02T05:42:07.281Z,34.20
2019-02-02T05:47:10.972Z,38.17
2019-02-02T05:52:14.661Z,36.83
2019-02-02T05:57:18.403Z,38.73
2019-02-02T06:02:22.414Z,41.10
2019-02-02T06:07:26.078Z,42.00
2019-02-02T06:12:29.899Z,42.03
2019-02-02T06:17:33.561Z,42.27
2019-02-02T06:22:37.319Z,46.80
2019-02-02T06:27:41.062Z,47.93
2019-02-02T06:32:45.223Z,51.03
2019-02-02T06:37:49.268Z,52.77
2019-02-02T06:42:52.973Z,49.30
2019-02-02T06:47:56.767Z,55.53
2019-02-02T06:53:00.941Z,52.83
2019-02-02T06:58:04.642Z,49.83
2019-02-02T07:03:08.338Z,52.90
2019-02-02T07:08:12.249Z,49.87
2019-02-02T07:13:15.923Z,47.60
2019-02-02T07:18:19.637Z,46.90
2019-02-02T07:23:23.281Z,43.90
2019-02-02T07:28:27.105Z,47.60
2019-02-02T07:33:31.115Z,47.80
2019-02-02T07:38:34.843Z,41.10
2019-02-02T07:43:38.631Z,43.50
2019-02-02T07:48:42.608Z,43.30
2019-02-02T07:53:46.362Z,40.93
2019-02-02T07:58:50.132Z,46.10
2019-02-02T08:03:53.849Z,42.77
2019-02-02T08:08:57.743Z,41.20
2019-02-02T08:14:01.494Z,42.23
2019-02-02T08:19:05.282Z,42.23
2019-02-02T08:24:09.032Z,42.53
2019-02-02T08:29:12.774Z,44.90
2019-02-02T08:34:16.595Z,47.57
2019-02-02T08:39:28.917Z,53.13
2019-02-02T08:44:25.803Z,48.40
2019-02-02T08:49:29.574Z,48.73
2019-02-02T08:54:33.320Z,45.93
2019-02-02T08:59:37.013Z,48.43
2019-02-02T09:04:40.849Z,45.87
2019-02-02T09:09:44.592Z,50.27
2019-02-02T09:14:48.526Z,43.50
2019-02-02T09:19:52.382Z,45.30
2019-02-02T09:24:58.183Z,43.20
2019-02-02T09:30:01.776Z,39.60
2019-02-02T09:35:06.514Z,40.57
2019-02-02T09:40:11.398Z,41.90
2019-02-02T09:45:17.650Z,44.20
2019-02-02T09:50:22.496Z,38.43
2019-02-02T09:55:26.679Z,40.03
2019-02-02T10:00:31.433Z,38.93
2019-02-02T10:05:35.142Z,42.70
2019-02-02T10:10:38.966Z,38.67
2019-02-02T10:15:42.787Z,43.20
2019-02-02T10:20:46.665Z,39.17
2019-02-02T10:25:50.530Z,42.13
2019-02-02T10:30:54.311Z,41.77
2019-02-02T10:35:58.006Z,37.33
2019-02-02T10:41:01.843Z,37.60
2019-02-02T10:46:05.702Z,39.80
2019-02-02T10:51:09.396Z,38.30
2019-02-02T10:56:13.072Z,38.00
2019-02-02T11:01:16.802Z,41.80
2019-02-02T11:06:20.761Z,37.87
2019-02-02T11:11:24.604Z,37.13
2019-02-02T11:16:28.592Z,37.67
2019-02-02T11:21:32.665Z,33.90
2019-02-02T11:26:36.561Z,36.37
2019-02-02T11:31:40.362Z,38.17
2019-02-02T11:36:44.275Z,39.40
2019-02-02T11:41:48.371Z,40.33
2019-02-02T11:46:52.373Z,39.30
2019-02-02T11:51:56.176Z,37.70
2019-02-02T11:56:59.829Z,41.17
2019-02-02T12:02:14.021Z,41.30
2019-02-02T12:07:09.019Z,44.87
2019-02-02T12:12:12.782Z,37.73
2019-02-02T12:17:18.616Z,42.47
2019-02-02T12:22:22.468Z,47.97
2019-02-02T12:27:26.249Z,43.83
2019-02-02T12:32:30.040Z,42.80
2019-02-02T12:37:33.869Z,42.73
2019-02-02T12:42:37.721Z,42.60
2019-02-02T12:47:41.643Z,40.27
2019-02-02T12:52:45.908Z,42.90
2019-02-02T12:57:49.668Z,40.13
2019-02-02T13:02:53.562Z,39.13
2019-02-02T13:07:57.316Z,43.27
2019-02-02T13:13:01.106Z,45.87
2019-02-02T13:18:06.960Z,44.20
2019-02-02T13:23:11.572Z,44.57
2019-02-02T13:28:16.758Z,44.60
2019-02-02T13:33:20.477Z,41.30
2019-02-02T13:38:24.228Z,40.40
2019-02-02T13:43:28.179Z,44.30
2019-02-02T13:48:31.908Z,38.53
2019-02-02T13:53:35.623Z,41.30
2019-02-02T13:58:39.376Z,41.20
2019-02-02T14:03:43.147Z,41.00
2019-02-02T14:08:47.080Z,35.87
2019-02-02T14:13:50.935Z,41.43
2019-02-02T14:18:54.737Z,39.33
2019-02-02T14:23:59.838Z,38.13
2019-02-02T14:29:03.611Z,37.63
2019-02-02T14:34:07.340Z,39.17
2019-02-02T14:39:11.160Z,41.27
2019-02-02T14:44:14.967Z,35.40
2019-02-02T14:49:38.060Z,38.63
2019-02-02T14:54:41.790Z,40.00
2019-02-02T14:59:45.687Z,34.27
2019-02-02T15:04:49.436Z,35.30
2019-02-02T15:09:53.245Z,38.03
2019-02-02T15:14:57.053Z,34.73
2019-02-02T15:20:00.800Z,36.57
2019-02-02T15:25:05.460Z,37.53
2019-02-02T15:30:11.347Z,37.77
2019-02-02T15:35:15.335Z,35.47
2019-02-02T15:40:19.170Z,35.80
2019-02-02T15:45:24.138Z,37.40
2019-02-02T15:50:27.841Z,34.80
2019-02-02T15:55:31.576Z,34.20
2019-02-02T16:00:37.282Z,34.80
2019-02-02T16:05:41.052Z,31.03
2019-02-02T16:10:44.841Z,42.27
2019-02-02T16:15:48.758Z,37.40
2019-02-02T16:20:52.510Z,36.37
2019-02-02T16:25:56.184Z,36.13
2019-02-02T16:31:00.126Z,36.07
2019-02-02T16:36:03.878Z,37.33
2019-02-02T16:41:09.256Z,37.17
2019-02-02T16:46:13.297Z,40.10
2019-02-02T16:51:17.040Z,35.83
2019-02-02T16:56:20.842Z,36.57
2019-02-02T17:01:24.886Z,34.23
2019-02-02T17:06:28.948Z,34.63
2019-02-02T17:11:32.744Z,33.30
2019-02-02T17:16:36.595Z,39.57
2019-02-02T17:21:40.357Z,33.43
2019-02-02T17:26:44.064Z,31.00
2019-02-02T17:31:47.934Z,33.97
2019-02-02T17:36:51.866Z,30.20
2019-02-02T17:41:55.737Z,30.47
2019-02-02T17:46:59.675Z,35.30
2019-02-02T17:52:03.449Z,43.73
2019-02-02T17:57:08.157Z,44.63
2019-02-02T18:02:11.880Z,50.67
2019-02-02T18:07:15.749Z,59.20
2019-02-02T18:12:19.649Z,63.37
2019-02-02T18:17:24.744Z,57.83
2019-02-02T18:22:28.552Z,58.53
2019-02-02T18:27:34.286Z,64.47
2019-02-02T18:32:38.079Z,58.13
2019-02-02T18:37:41.921Z,55.40
2019-02-02T18:42:45.830Z,56.20
2019-02-02T18:47:49.844Z,55.37
2019-02-02T18:52:53.887Z,52.73
2019-02-02T18:57:57.710Z,48.60
2019-02-02T19:03:01.506Z,51.83
2019-02-02T19:08:06.113Z,45.23
2019-02-02T19:13:10.289Z,40.57
2019-02-02T19:18:14.083Z,39.00
2019-02-02T19:23:25.227Z,39.47
2019-02-02T19:28:26.482Z,36.50
2019-02-02T19:33:29.275Z,36.63
2019-02-02T19:38:33.021Z,33.60
2019-02-02T19:43:36.808Z,32.00
2019-02-02T19:48:41.150Z,33.23
2019-02-02T19:53:46.091Z,33.23
2019-02-02T19:58:49.786Z,33.70
2019-02-02T20:03:53.787Z,33.90
2019-02-02T20:08:57.973Z,30.07
2019-02-02T20:14:02.011Z,29.50
2019-02-02T20:19:05.945Z,29.80
2019-02-02T20:24:09.741Z,30.03
2019-02-02T20:29:13.767Z,27.70
2019-02-02T20:34:17.528Z,31.03
2019-02-02T20:39:21.566Z,30.63
2019-02-02T20:44:25.387Z,30.20
2019-02-02T20:49:29.189Z,30.43
2019-02-02T20:54:33.145Z,29.93
2019-02-02T20:59:36.969Z,34.63
2019-02-02T21:04:40.775Z,28.10
2019-02-02T21:09:46.300Z,30.90
2019-02-02T21:14:50.103Z,36.13
2019-02-02T21:19:53.875Z,36.00
2019-02-02T21:24:57.680Z,30.37
2019-02-02T21:30:02.080Z,31.60
2019-02-02T21:35:06.237Z,30.03
2019-02-02T21:40:12.526Z,29.87
2019-02-02T21:45:16.361Z,34.20
2019-02-02T21:50:21.691Z,31.63
2019-02-02T21:55:26.980Z,30.60
2019-02-02T22:00:32.998Z,30.50
2019-02-02T22:05:36.819Z,30.77
2019-02-02T22:10:40.922Z,30.20
2019-02-02T22:15:44.660Z,27.33
2019-02-02T22:20:48.500Z,31.30
2019-02-02T22:25:52.282Z,33.40
2019-02-02T22:30:56.002Z,29.37
2019-02-02T22:36:01.477Z,33.17
2019-02-02T22:41:07.060Z,33.90
2019-02-02T22:46:11.546Z,32.70
2019-02-02T22:51:15.638Z,31.77
2019-02-02T22:56:19.543Z,37.00
2019-02-02T23:01:39.100Z,36.23
2019-02-02T23:07:14.365Z,39.40
2019-02-02T23:12:31.024Z,41.20
2019-02-02T23:17:34.766Z,42.03
2019-02-02T23:22:38.842Z,45.07
2019-02-02T23:27:42.531Z,44.50
2019-02-02T23:32:46.362Z,57.60
2019-02-02T23:37:50.116Z,57.90
2019-02-02T23:42:53.884Z,62.10
2019-02-02T23:47:57.778Z,56.80
2019-02-02T23:53:01.534Z,60.30
2019-02-02T23:58:05.404Z,67.40
